createdAt,value
2018-01-07T00:00:31.383Z,74.98
2018-01-07T00:01:11.795Z,74.5
2018-01-07T00:01:52.190Z,74.6
2018-01-07T00:02:32.532Z,74.69
2018-01-07T00:03:13.734Z,74.5
2018-01-07T00:03:54.750Z,74.75
2018-01-07T00:04:35.192Z,74.98
2018-01-07T00:05:15.551Z,75.04
2018-01-07T00:05:56.151Z,75.04
2018-01-07T00:06:36.569Z,75.13
2018-01-07T00:07:16.963Z,75.23
2018-01-07T00:07:57.347Z,75.89
2018-01-07T00:08:37.757Z,76.08
2018-01-07T00:09:18.151Z,76.18
2018-01-07T00:09:58.620Z,75.51
2018-01-07T00:10:38.983Z,75.36
2018-01-07T00:11:19.841Z,74.98
2018-01-07T00:12:00.349Z,74.69
2018-01-07T00:12:40.700Z,75.16
2018-01-07T00:13:21.161Z,74.69
2018-01-07T00:14:01.491Z,74.98
2018-01-07T00:14:41.895Z,74.4
2018-01-07T00:15:22.221Z,74.98
2018-01-07T00:16:02.635Z,74.79
2018-01-07T00:16:43.020Z,74.31
2018-01-07T00:17:23.383Z,74.12
2018-01-07T00:18:03.781Z,74.4
2018-01-07T00:18:44.363Z,74.4
2018-01-07T00:19:24.642Z,74.88
2018-01-07T00:20:05.057Z,74.98
2018-01-07T00:20:45.834Z,74.98
2018-01-07T00:21:26.237Z,74.98
2018-01-07T00:22:06.713Z,75.07
2018-01-07T00:22:47.069Z,74.88
2018-01-07T00:23:27.474Z,75.07
2018-01-07T00:24:07.875Z,74.79
2018-01-07T00:24:48.269Z,75.13
2018-01-07T00:25:28.650Z,74.94
2018-01-07T00:26:09.075Z,75.04
2018-01-07T00:26:49.746Z,75.51
2018-01-07T00:27:30.175Z,75.51
2018-01-07T00:28:11.049Z,75.6
2018-01-07T00:28:51.378Z,75.16
2018-01-07T00:29:32.060Z,75.04
2018-01-07T00:30:12.300Z,75.23
2018-01-07T00:30:52.657Z,75.36
2018-01-07T00:31:33.107Z,75.42
2018-01-07T00:32:13.760Z,75.6
2018-01-07T00:32:54.342Z,75.36
2018-01-07T00:33:34.715Z,75.45
2018-01-07T00:34:15.238Z,75.64
2018-01-07T00:34:55.652Z,75.13
2018-01-07T00:35:36.212Z,75.26
2018-01-07T00:36:17.005Z,75.16
2018-01-07T00:36:57.739Z,75.07
2018-01-07T00:37:38.181Z,75.26
2018-01-07T00:38:18.479Z,75.16
2018-01-07T00:38:58.883Z,75.55
2018-01-07T00:39:40.374Z,75.26
2018-01-07T00:41:30.589Z,75.32
2018-01-07T00:42:13.877Z,76.08
2018-01-07T00:42:54.863Z,75.99
2018-01-07T00:43:35.561Z,76.08
2018-01-07T00:44:16.237Z,76.75
2018-01-07T00:44:56.694Z,76.65
2018-01-07T00:45:37.114Z,76.65
2018-01-07T00:46:17.525Z,76.46
2018-01-07T00:46:57.924Z,77.13
2018-01-07T00:47:38.320Z,76.46
2018-01-07T00:48:18.699Z,76.08
2018-01-07T00:48:59.260Z,76.18
2018-01-07T00:49:39.937Z,76.18
2018-01-07T00:51:52.677Z,76.08
2018-01-07T00:52:33.468Z,76.56
2018-01-07T00:53:14.187Z,76.65
2018-01-07T00:53:54.683Z,76.46
2018-01-07T00:54:35.265Z,76.56
2018-01-07T00:55:15.706Z,76.18
2018-01-07T00:55:55.956Z,76.56
2018-01-07T00:56:38.049Z,76.94
2018-01-07T00:57:18.768Z,77.13
2018-01-07T00:57:59.095Z,77.03
2018-01-07T00:58:39.923Z,77.03
2018-01-07T01:00:37.140Z,77.03
2018-01-07T01:01:17.533Z,76.84
2018-01-07T01:01:58.096Z,76.94
2018-01-07T01:02:38.768Z,77.22
2018-01-07T01:03:19.620Z,77.32
2018-01-07T01:03:59.939Z,77.7
2018-01-07T01:04:40.495Z,77.51
2018-01-07T01:05:20.855Z,77.32
2018-01-07T01:06:01.205Z,77.51
2018-01-07T01:06:41.958Z,76.94
2018-01-07T01:07:22.454Z,76.56
2018-01-07T01:08:02.719Z,77.13
2018-01-07T01:08:43.140Z,76.37
2018-01-07T01:09:23.953Z,76.46
2018-01-07T01:10:04.286Z,76.56
2018-01-07T01:10:44.637Z,76.84
2018-01-07T01:11:25.079Z,76.08
2018-01-07T01:12:05.453Z,76.37
2018-01-07T01:12:45.850Z,75.89
2018-01-07T01:13:26.328Z,75.32
2018-01-07T01:14:06.680Z,76.37
2018-01-07T01:14:47.203Z,76.08
2018-01-07T01:15:27.710Z,75.32
2018-01-07T01:16:08.254Z,75.51
2018-01-07T01:16:49.396Z,75.13
2018-01-07T01:17:29.768Z,75.04
2018-01-07T01:18:10.292Z,74.98
2018-01-07T01:18:51.825Z,75.07
2018-01-07T01:20:41.432Z,75.04
2018-01-07T01:22:36.440Z,75.13
2018-01-07T01:23:29.924Z,75.04
2018-01-07T01:24:23.004Z,75.13
2018-01-07T01:25:16.080Z,75.13
2018-01-07T01:26:08.410Z,75.51
2018-01-07T01:27:00.942Z,75.42
2018-01-07T01:27:55.100Z,75.13
2018-01-07T01:28:47.642Z,75.23
2018-01-07T01:29:39.907Z,76.08
2018-01-07T01:30:32.509Z,75.99
2018-01-07T01:31:24.879Z,76.08
2018-01-07T01:32:17.010Z,76.56
2018-01-07T01:33:12.437Z,77.22
2018-01-07T01:34:05.055Z,77.22
2018-01-07T01:34:57.736Z,76.75
2018-01-07T01:35:51.698Z,76.84
2018-01-07T01:36:44.214Z,77.37
2018-01-07T01:37:37.541Z,77.66
2018-01-07T01:38:31.220Z,77.7
2018-01-07T01:39:23.396Z,77.32
2018-01-07T01:40:15.835Z,77.42
2018-01-07T01:41:08.332Z,78.08
2018-01-07T01:42:00.942Z,77.51
2018-01-07T01:42:54.982Z,77.22
2018-01-07T01:43:47.680Z,77.56
2018-01-07T01:44:39.650Z,77.85
2018-01-07T01:45:32.283Z,77.7
2018-01-07T01:46:24.357Z,77.89
2018-01-07T01:47:16.527Z,77.7
2018-01-07T01:48:10.526Z,77.7
2018-01-07T01:49:03.274Z,77.42
2018-01-07T01:49:55.433Z,77.61
2018-01-07T01:50:49.306Z,77.42
2018-01-07T01:51:41.635Z,77.42
2018-01-07T01:52:33.724Z,77.32
2018-01-07T01:53:26.520Z,77.13
2018-01-07T01:54:18.797Z,77.03
2018-01-07T01:55:12.436Z,77.51
2018-01-07T01:56:05.281Z,77.32
2018-01-07T01:56:58.560Z,77.28
2018-01-07T01:57:47.958Z,77.56
2018-01-07T01:58:28.780Z,78.23
2018-01-07T01:59:09.079Z,78.61
2018-01-07T01:59:49.692Z,78.42
2018-01-07T02:00:30.353Z,78.33
2018-01-07T02:01:12.248Z,78.52
2018-01-07T02:01:52.583Z,78.42
2018-01-07T02:02:33.125Z,78.61
2018-01-07T02:03:13.463Z,78.52
2018-01-07T02:03:53.997Z,78.52
2018-01-07T02:04:34.564Z,78.52
2018-01-07T02:05:15.338Z,78.42
2018-01-07T02:05:55.588Z,79.19
2018-01-07T02:06:36.186Z,78.99
2018-01-07T02:07:16.648Z,78.9
2018-01-07T02:07:58.038Z,79.09
2018-01-07T02:08:38.381Z,78.42
2018-01-07T02:09:19.785Z,78.61
2018-01-07T02:10:00.493Z,78.33
2018-01-07T02:10:41.421Z,78.52
2018-01-07T02:11:21.816Z,78.23
2018-01-07T02:12:02.181Z,78.61
2018-01-07T02:12:42.702Z,78.71
2018-01-07T02:13:23.059Z,78.52
2018-01-07T02:14:03.556Z,78.52
2018-01-07T02:14:44.047Z,78.61
2018-01-07T02:15:26.245Z,78.14
2018-01-07T02:16:06.782Z,78.61
2018-01-07T02:16:47.207Z,78.9
2018-01-07T02:17:28.847Z,78.71
2018-01-07T02:18:09.889Z,78.96
2018-01-07T02:18:50.151Z,79.24
2018-01-07T02:19:31.568Z,78.96
2018-01-07T02:20:12.279Z,79.38
2018-01-07T02:20:53.227Z,79.05
2018-01-07T02:21:34.050Z,79.57
2018-01-07T02:22:14.666Z,79.62
2018-01-07T02:22:55.258Z,79.62
2018-01-07T02:23:35.803Z,79.14
2018-01-07T02:24:16.229Z,79.72
2018-01-07T02:24:56.640Z,79.38
2018-01-07T02:25:37.145Z,79.09
2018-01-07T02:26:23.176Z,78.52
2018-01-07T02:27:04.134Z,78.48
2018-01-07T02:27:45.167Z,78.57
2018-01-07T02:28:25.672Z,78.38
2018-01-07T02:29:06.058Z,78.57
2018-01-07T02:29:46.651Z,78.48
2018-01-07T02:30:26.992Z,78.86
2018-01-07T02:31:07.693Z,79.14
2018-01-07T02:32:49.390Z,79.14
2018-01-07T02:33:30.456Z,79.05
2018-01-07T02:34:11.894Z,79.05
2018-01-07T02:34:52.310Z,78.96
2018-01-07T02:35:32.721Z,79.14
2018-01-07T02:36:13.164Z,79.14
2018-01-07T02:36:53.633Z,78.96
2018-01-07T02:37:35.095Z,79.43
2018-01-07T02:38:15.448Z,79.05
2018-01-07T02:38:57.139Z,79.14
2018-01-07T02:39:37.666Z,79.14
2018-01-07T02:40:18.794Z,78.96
2018-01-07T02:40:59.153Z,78.96
2018-01-07T02:41:40.469Z,78.67
2018-01-07T02:42:20.966Z,79.05
2018-01-07T02:43:02.289Z,78.38
2018-01-07T02:43:43.210Z,78.96
2018-01-07T02:44:23.795Z,79.33
2018-01-07T02:45:04.030Z,79.33
2018-01-07T02:45:44.515Z,79.14
2018-01-07T02:46:25.696Z,78.77
2018-01-07T02:47:07.672Z,78.38
2018-01-07T02:47:48.733Z,78.38
2018-01-07T02:48:29.140Z,78.77
2018-01-07T02:49:09.594Z,78.48
2018-01-07T02:49:50.056Z,78.77
2018-01-07T02:50:30.755Z,79.14
2018-01-07T02:51:11.276Z,79.05
2018-01-07T02:51:51.617Z,79.05
2018-01-07T02:52:33.170Z,78.86
2018-01-07T02:53:13.530Z,78
2018-01-07T02:53:54.622Z,78.48
2018-01-07T02:54:34.485Z,78.48
2018-01-07T02:55:15.637Z,78.48
2018-01-07T02:55:56.126Z,78
2018-01-07T02:56:36.616Z,77.91
2018-01-07T02:57:17.244Z,78.38
2018-01-07T02:57:57.635Z,78.1
2018-01-07T02:58:38.576Z,78.19
2018-01-07T02:59:19.073Z,78.38
2018-01-07T02:59:59.398Z,78.86
2018-01-07T03:00:40.724Z,78.38
2018-01-07T03:01:23.753Z,78.77
2018-01-07T03:02:04.145Z,78.38
2018-01-07T03:02:44.962Z,78.29
2018-01-07T03:03:25.538Z,78.38
2018-01-07T03:04:05.991Z,78.67
2018-01-07T03:04:48.307Z,78.1
2018-01-07T03:05:28.552Z,78.48
2018-01-07T03:06:09.014Z,78.57
2018-01-07T03:06:50.281Z,79.14
2018-01-07T03:07:30.656Z,79.62
2018-01-07T03:08:11.220Z,79.43
2018-01-07T03:08:51.595Z,79.14
2018-01-07T03:09:31.998Z,79.14
2018-01-07T03:10:12.482Z,79.14
2018-01-07T03:10:53.702Z,78.96
2018-01-07T03:11:34.130Z,78.48
2018-01-07T03:12:14.499Z,78.86
2018-01-07T03:12:55.652Z,79.05
2018-01-07T03:13:36.035Z,78.77
2018-01-07T03:14:16.419Z,78.96
2018-01-07T03:14:56.867Z,78.77
2018-01-07T03:15:37.265Z,79.14
2018-01-07T03:16:17.704Z,78.77
2018-01-07T03:16:58.099Z,79.05
2018-01-07T03:17:38.444Z,77.81
2018-01-07T03:19:27.868Z,78
2018-01-07T03:20:08.222Z,78
2018-01-07T03:20:48.727Z,77.81
2018-01-07T03:21:29.736Z,77.91
2018-01-07T03:22:10.614Z,78.19
2018-01-07T03:22:51.381Z,78.38
2018-01-07T03:23:32.258Z,78.48
2018-01-07T03:24:12.561Z,78.19
2018-01-07T03:24:53.175Z,78.67
2018-01-07T03:25:33.623Z,77.91
2018-01-07T03:26:13.959Z,77.72
2018-01-07T03:26:54.822Z,77.91
2018-01-07T03:27:36.232Z,77.81
2018-01-07T03:28:16.594Z,77.91
2018-01-07T03:28:56.918Z,77.66
2018-01-07T03:29:37.312Z,77.66
2018-01-07T03:30:17.785Z,77.05
2018-01-07T03:30:58.238Z,76.86
2018-01-07T03:31:38.686Z,76.96
2018-01-07T03:32:19.045Z,76.96
2018-01-07T03:32:59.879Z,77.34
2018-01-07T03:33:39.951Z,77.81
2018-01-07T03:34:20.804Z,77.05
2018-01-07T03:35:01.115Z,76.96
2018-01-07T03:35:41.557Z,77.24
2018-01-07T03:36:25.185Z,78
2018-01-07T03:37:06.897Z,77.43
2018-01-07T03:37:47.948Z,77.62
2018-01-07T03:38:28.501Z,77.72
2018-01-07T03:39:08.965Z,77.72
2018-01-07T03:39:49.352Z,77.34
2018-01-07T03:40:30.184Z,76.96
2018-01-07T03:41:10.499Z,77.34
2018-01-07T03:43:03.671Z,77.53
2018-01-07T03:43:43.944Z,77.62
2018-01-07T03:44:24.431Z,78.48
2018-01-07T03:45:06.180Z,78.19
2018-01-07T03:45:46.385Z,78.38
2018-01-07T03:46:26.873Z,78.48
2018-01-07T03:47:07.493Z,77.72
2018-01-07T03:47:47.919Z,78
2018-01-07T03:48:28.355Z,77.81
2018-01-07T03:49:08.752Z,78
2018-01-07T03:49:49.516Z,77.91
2018-01-07T03:50:29.800Z,77.81
2018-01-07T03:51:10.331Z,78.19
2018-01-07T03:51:50.715Z,78.29
2018-01-07T03:52:31.535Z,78.67
2018-01-07T03:54:49.562Z,78.19
2018-01-07T03:55:31.866Z,78
2018-01-07T03:56:12.489Z,77.72
2018-01-07T03:56:52.989Z,78.48
2018-01-07T03:57:33.379Z,78.19
2018-01-07T03:58:14.254Z,78.19
2018-01-07T03:58:54.664Z,77.81
2018-01-07T03:59:35.315Z,77.81
2018-01-07T04:00:15.924Z,78
2018-01-07T04:00:56.108Z,77.62
2018-01-07T04:01:36.800Z,77.62
2018-01-07T04:02:17.180Z,78.1
2018-01-07T04:02:57.743Z,77.81
2018-01-07T04:03:38.285Z,78
2018-01-07T04:41:04.800Z,80.91
2018-01-07T04:41:45.626Z,80.15
2018-01-07T04:42:26.315Z,79.86
2018-01-07T04:43:07.147Z,80.05
2018-01-07T04:43:47.558Z,79.63
2018-01-07T04:44:28.395Z,80.02
2018-01-07T04:45:08.675Z,80.77
2018-01-07T04:45:49.023Z,79.96
2018-01-07T04:48:08.456Z,79.35
2018-01-07T04:49:00.789Z,80.02
2018-01-07T04:49:53.526Z,80.58
2018-01-07T04:50:45.927Z,80.96
2018-01-07T04:51:38.316Z,80.11
2018-01-07T04:52:30.868Z,80.91
2018-01-07T04:53:23.324Z,80.34
2018-01-07T04:54:16.278Z,80.05
2018-01-07T04:55:09.247Z,79.58
2018-01-07T04:56:01.554Z,79.58
2018-01-07T04:56:53.932Z,79.11
2018-01-07T04:57:45.770Z,79.2
2018-01-07T04:58:40.760Z,79.39
2018-01-07T04:59:32.659Z,79.01
2018-01-07T05:00:24.467Z,79.11
2018-01-07T05:01:28.843Z,79.2
2018-01-07T05:02:25.351Z,78.25
2018-01-07T05:03:18.467Z,79.01
2018-01-07T05:04:10.651Z,78.34
2018-01-07T05:05:03.299Z,79.01
2018-01-07T05:06:00.460Z,78.82
2018-01-07T05:06:52.498Z,78.06
2018-01-07T05:07:44.259Z,77.77
2018-01-07T05:08:36.732Z,77.77
2018-01-07T05:09:34.015Z,77.53
2018-01-07T05:10:27.634Z,76.57
2018-01-07T05:11:19.381Z,76.1
2018-01-07T05:12:11.818Z,76.48
2018-01-07T05:13:04.304Z,77.05
2018-01-07T05:13:57.066Z,77.15
2018-01-07T05:14:52.365Z,76.01
2018-01-07T05:15:44.690Z,75.43
2018-01-07T05:16:36.762Z,75.15
2018-01-07T05:17:28.949Z,75.43
2018-01-07T05:18:22.325Z,75.05
2018-01-07T05:19:14.797Z,74.87
2018-01-07T05:20:07.919Z,74.96
2018-01-07T05:20:59.607Z,74.2
2018-01-07T05:21:51.661Z,74.77
2018-01-07T05:22:44.542Z,74.39
2018-01-07T05:23:38.017Z,74.87
2018-01-07T05:25:47.417Z,75.38
2018-01-07T05:26:39.939Z,74.71
2018-01-07T05:27:32.525Z,74.24
2018-01-07T05:28:24.976Z,74.39
2018-01-07T05:29:20.553Z,74.1
2018-01-07T05:30:12.968Z,74.67
2018-01-07T05:31:06.810Z,75.05
2018-01-07T05:32:00.070Z,74.87
2018-01-07T05:32:52.540Z,75.15
2018-01-07T05:33:44.806Z,75.72
2018-01-07T05:35:43.839Z,75.62
2018-01-07T05:36:25.246Z,75.15
2018-01-07T05:37:05.753Z,75.15
2018-01-07T05:37:47.161Z,75.81
2018-01-07T05:38:28.238Z,76.01
2018-01-07T05:39:08.984Z,76.39
2018-01-07T05:39:49.207Z,75.81
2018-01-07T05:40:31.174Z,76.2
2018-01-07T05:41:11.487Z,76.2
2018-01-07T05:41:51.827Z,76.01
2018-01-07T05:42:33.190Z,76.2
2018-01-07T05:43:13.566Z,76.57
2018-01-07T05:43:54.519Z,76.48
2018-01-07T05:44:34.866Z,76.1
2018-01-07T05:45:15.304Z,76.2
2018-01-07T05:45:55.686Z,76.2
2018-01-07T05:46:37.107Z,76.2
2018-01-07T05:47:17.854Z,76.2
2018-01-07T05:47:58.241Z,76.29
2018-01-07T05:48:38.586Z,76.01
2018-01-07T05:49:20.362Z,75.24
2018-01-07T05:50:01.224Z,76.2
2018-01-07T05:50:43.037Z,76.01
2018-01-07T05:51:23.417Z,76.01
2018-01-07T05:52:03.777Z,75.91
2018-01-07T05:52:44.213Z,75.81
2018-01-07T05:53:24.664Z,75.81
2018-01-07T05:54:05.771Z,75.53
2018-01-07T05:54:47.215Z,75.15
2018-01-07T05:55:27.573Z,75.24
2018-01-07T05:56:07.961Z,76.2
2018-01-07T05:56:48.476Z,74.96
2018-01-07T05:57:28.979Z,75.34
2018-01-07T05:58:09.468Z,75.24
2018-01-07T05:58:51.340Z,75.15
2018-01-07T06:01:05.830Z,75.43
2018-01-07T06:01:47.730Z,76.29
2018-01-07T06:02:28.195Z,76.29
2018-01-07T06:03:09.479Z,75.05
2018-01-07T06:03:49.869Z,74.58
2018-01-07T06:04:30.466Z,74.77
2018-01-07T06:05:10.749Z,74.67
2018-01-07T06:05:51.530Z,74.87
2018-01-07T06:06:32.103Z,74.39
2018-01-07T06:07:12.341Z,74.2
2018-01-07T06:07:52.714Z,74.2
2018-01-07T06:08:33.436Z,74.39
2018-01-07T06:09:14.212Z,74.96
2018-01-07T06:09:54.475Z,74.96
2018-01-07T06:10:34.976Z,74.96
2018-01-07T06:11:15.513Z,74.77
2018-01-07T06:11:55.848Z,74.87
2018-01-07T06:12:36.526Z,74.96
2018-01-07T06:13:16.909Z,74.48
2018-01-07T06:13:57.795Z,74.58
2018-01-07T06:14:38.200Z,74.29
2018-01-07T06:15:18.751Z,74.96
2018-01-07T06:15:59.252Z,74.29
2018-01-07T06:16:39.859Z,74.48
2018-01-07T06:17:20.577Z,74.2
2018-01-07T06:18:00.772Z,74.39
2018-01-07T06:18:41.114Z,74.2
2018-01-07T06:19:21.726Z,74.29
2018-01-07T06:20:02.106Z,74.29
2018-01-07T06:21:49.722Z,74.1
2018-01-07T06:22:30.322Z,74.01
2018-01-07T06:23:10.755Z,74.67
2018-01-07T06:23:51.296Z,74.87
2018-01-07T06:24:31.656Z,74.01
2018-01-07T06:25:12.650Z,74.1
2018-01-07T06:25:53.205Z,74.67
2018-01-07T06:26:33.540Z,74.87
2018-01-07T06:27:14.002Z,75.24
2018-01-07T06:27:54.364Z,75.24
2018-01-07T06:28:35.256Z,74.96
2018-01-07T06:29:15.693Z,74.67
2018-01-07T06:29:56.208Z,74.67
2018-01-07T06:30:36.500Z,74.77
2018-01-07T06:31:17.447Z,74.01
2018-01-07T06:33:30.061Z,74.96
2018-01-07T06:34:14.213Z,74.48
2018-01-07T06:34:53.803Z,74.96
2018-01-07T06:37:13.828Z,74.58
2018-01-07T06:38:00.542Z,74.01
2018-01-07T06:38:41.741Z,74.29
2018-01-07T06:39:22.150Z,74.96
2018-01-07T06:40:02.571Z,74.63
2018-01-07T06:40:43.162Z,74.82
2018-01-07T06:41:23.784Z,74.87
2018-01-07T06:42:04.760Z,74.67
2018-01-07T06:42:45.901Z,74.87
2018-01-07T06:43:26.596Z,74.87
2018-01-07T06:45:25.680Z,73.34
2018-01-07T06:46:18.498Z,74.2
2018-01-07T06:47:10.683Z,74.01
2018-01-07T06:48:03.943Z,74.07
2018-01-07T06:48:55.844Z,74.35
2018-01-07T06:49:49.695Z,74.73
2018-01-07T06:50:43.206Z,74.92
2018-01-07T06:51:35.515Z,74.82
2018-01-07T06:52:27.707Z,75.15
2018-01-07T06:53:21.724Z,74.39
2018-01-07T06:54:14.542Z,74.1
2018-01-07T06:55:06.525Z,74.1
2018-01-07T06:55:58.696Z,74.16
2018-01-07T06:56:50.521Z,73.88
2018-01-07T06:57:42.716Z,75.02
2018-01-07T06:58:34.693Z,74.82
2018-01-07T06:59:26.758Z,74.82
2018-01-07T07:00:21.327Z,74.73
2018-01-07T07:01:15.046Z,74.82
2018-01-07T07:02:09.674Z,74.82
2018-01-07T07:03:01.299Z,74.63
2018-01-07T07:04:00.637Z,75.11
2018-01-07T07:04:53.713Z,74.92
2018-01-07T07:05:46.698Z,74.82
2018-01-07T07:06:39.576Z,74.07
2018-01-07T07:07:32.923Z,73.63
2018-01-07T07:08:25.269Z,73.21
2018-01-07T07:09:19.171Z,73.78
2018-01-07T07:10:12.255Z,73.44
2018-01-07T07:11:04.349Z,73.34
2018-01-07T07:11:57.237Z,73.4
2018-01-07T07:12:51.610Z,74.07
2018-01-07T07:13:46.651Z,73.97
2018-01-07T07:14:38.604Z,74.16
2018-01-07T07:15:31.130Z,73.59
2018-01-07T07:16:23.646Z,74.07
2018-01-07T07:17:18.502Z,74.35
2018-01-07T07:18:11.137Z,74.26
2018-01-07T07:19:04.166Z,74.73
2018-01-07T07:19:56.347Z,74.92
2018-01-07T07:20:49.315Z,75.02
2018-01-07T07:21:42.308Z,75.11
2018-01-07T07:22:37.398Z,74.82
2018-01-07T07:23:29.696Z,74.82
2018-01-07T07:24:21.813Z,74.26
2018-01-07T07:25:14.222Z,74.35
2018-01-07T07:26:08.400Z,74.07
2018-01-07T07:28:49.818Z,74.73
2018-01-07T07:29:31.899Z,74.82
2018-01-07T07:30:12.506Z,75.4
2018-01-07T07:30:53.476Z,74.35
2018-01-07T07:31:33.928Z,74.26
2018-01-07T07:32:14.951Z,73.97
2018-01-07T07:32:56.516Z,73.97
2018-01-07T07:33:37.014Z,74.26
2018-01-07T07:34:17.743Z,73.78
2018-01-07T07:34:58.399Z,73.59
2018-01-07T07:35:38.815Z,74.35
2018-01-07T07:36:21.812Z,74.35
2018-01-07T07:37:03.965Z,74.63
2018-01-07T07:37:44.557Z,74.07
2018-01-07T07:38:26.517Z,73.97
2018-01-07T07:39:06.982Z,74.82
2018-01-07T07:39:48.295Z,74.44
2018-01-07T07:40:28.694Z,74.16
2018-01-07T07:41:09.102Z,74.26
2018-01-07T07:41:49.504Z,74.63
2018-01-07T07:42:30.069Z,73.59
2018-01-07T07:43:10.415Z,73.78
2018-01-07T07:43:51.044Z,74.26
2018-01-07T07:44:31.563Z,73.78
2018-01-07T07:45:13.442Z,73.69
2018-01-07T07:45:54.156Z,73.97
2018-01-07T07:46:34.760Z,74.07
2018-01-07T07:47:15.192Z,74.26
2018-01-07T07:47:56.242Z,74.54
2018-01-07T07:48:36.656Z,73.88
2018-01-07T07:49:17.620Z,73.59
2018-01-07T07:50:00.057Z,73.59
2018-01-07T07:56:39.688Z,73.88
2018-01-07T07:57:21.832Z,73.97
2018-01-07T07:58:02.495Z,73.3
2018-01-07T07:58:43.042Z,73.78
2018-01-07T07:59:23.448Z,74.07
2018-01-07T08:00:03.989Z,74.16
2018-01-07T08:02:32.365Z,74.16
2018-01-07T08:03:24.496Z,73.97
2018-01-07T08:04:17.243Z,73.69
2018-01-07T08:05:09.429Z,73.88
2018-01-07T08:06:01.550Z,74.54
2018-01-07T08:06:54.107Z,74.26
2018-01-07T08:07:46.302Z,73.78
2018-01-07T08:08:40.888Z,74.07
2018-01-07T08:09:38.748Z,73.59
2018-01-07T08:10:31.111Z,73.69
2018-01-07T08:11:26.492Z,73.59
2018-01-07T08:12:18.454Z,73.15
2018-01-07T08:13:10.914Z,72.55
2018-01-07T08:14:05.607Z,72.96
2018-01-07T08:14:59.090Z,73.15
2018-01-07T08:15:57.320Z,73.06
2018-01-07T08:16:55.193Z,72.58
2018-01-07T08:17:52.294Z,72.58
2018-01-07T08:18:47.298Z,72.39
2018-01-07T08:19:50.462Z,72.11
2018-01-07T08:20:45.185Z,72.49
2018-01-07T08:21:26.956Z,72.67
2018-01-07T08:22:07.818Z,72.77
2018-01-07T08:22:48.720Z,72.39
2018-01-07T08:23:32.206Z,72.2
2018-01-07T08:24:15.153Z,72.39
2018-01-07T08:24:55.962Z,72.49
2018-01-07T08:25:36.732Z,73.06
2018-01-07T08:26:17.604Z,72.67
2018-01-07T08:26:57.974Z,72.49
2018-01-07T08:27:42.978Z,72.77
2018-01-07T08:28:25.117Z,72.01
2018-01-07T08:29:07.444Z,72.67
2018-01-07T08:29:47.539Z,72.92
2018-01-07T08:30:27.903Z,72.96
2018-01-07T08:32:48.087Z,72.39
2018-01-07T08:33:27.927Z,72.49
2018-01-07T08:34:08.953Z,72.49
2018-01-07T08:34:49.381Z,72.11
2018-01-07T08:35:29.775Z,72.01
2018-01-07T08:36:10.271Z,71.72
2018-01-07T08:36:51.742Z,71.34
2018-01-07T08:37:32.134Z,71.72
2018-01-07T08:38:13.521Z,71.63
2018-01-07T08:38:53.852Z,71.72
2018-01-07T08:39:34.225Z,71.44
2018-01-07T08:40:14.660Z,71.91
2018-01-07T08:40:55.114Z,71.53
2018-01-07T08:41:35.638Z,71.72
2018-01-07T08:42:15.976Z,71.34
2018-01-07T08:42:56.504Z,71.44
2018-01-07T08:43:36.975Z,70.97
2018-01-07T08:44:17.858Z,71.15
2018-01-07T08:44:58.270Z,71.34
2018-01-07T08:45:40.628Z,71.63
2018-01-07T08:46:21.215Z,71.44
2018-01-07T08:47:01.679Z,72.01
2018-01-07T08:47:42.080Z,72.67
2018-01-07T08:48:23.242Z,72.67
2018-01-07T08:49:03.885Z,72.39
2018-01-07T08:49:44.659Z,72.39
2018-01-07T08:50:24.799Z,72.49
2018-01-07T08:51:05.224Z,72.49
2018-01-07T08:51:45.746Z,72.11
2018-01-07T08:52:27.090Z,72.39
2018-01-07T08:53:08.243Z,72.58
2018-01-07T08:53:48.661Z,72.86
2018-01-07T08:54:29.113Z,73.15
2018-01-07T08:55:09.462Z,72.3
2018-01-07T08:55:49.845Z,72.01
2018-01-07T08:56:30.575Z,71.63
2018-01-07T08:57:11.029Z,72.11
2018-01-07T08:57:51.424Z,72.2
2018-01-07T08:58:32.697Z,71.91
2018-01-07T08:59:13.147Z,71.44
2018-01-07T08:59:53.688Z,71.63
2018-01-07T09:00:35.020Z,72.2
2018-01-07T09:01:16.234Z,72.3
2018-01-07T09:01:56.622Z,72.11
2018-01-07T09:03:56.917Z,71.63
2018-01-07T09:04:37.312Z,71.34
2018-01-07T09:05:18.279Z,71.28
2018-01-07T09:05:58.331Z,71.67
2018-01-07T09:06:39.008Z,70.62
2018-01-07T09:07:19.417Z,70.52
2018-01-07T09:07:59.716Z,70.68
2018-01-07T09:08:40.724Z,70.9
2018-01-07T09:09:21.573Z,71.09
2018-01-07T09:10:02.311Z,70.81
2018-01-07T09:10:42.798Z,71
2018-01-07T09:11:23.233Z,70.72
2018-01-07T09:12:03.590Z,70.72
2018-01-07T09:12:44.126Z,69.92
2018-01-07T09:13:24.669Z,70.87
2018-01-07T09:14:05.464Z,71.25
2018-01-07T09:14:45.862Z,70.87
2018-01-07T09:15:26.472Z,70.77
2018-01-07T09:16:07.271Z,70.97
2018-01-07T09:16:47.779Z,70.87
2018-01-07T09:17:28.480Z,71.44
2018-01-07T09:18:08.925Z,71.53
2018-01-07T09:18:49.319Z,71.34
2018-01-07T09:19:29.962Z,71.47
2018-01-07T09:20:10.428Z,71
2018-01-07T09:20:50.850Z,70.9
2018-01-07T09:21:31.895Z,70.52
2018-01-07T09:22:12.688Z,71.06
2018-01-07T09:22:53.927Z,70.62
2018-01-07T09:23:33.808Z,70.72
2018-01-07T09:24:14.904Z,70.3
2018-01-07T09:24:55.293Z,70.49
2018-01-07T09:25:38.030Z,70.2
2018-01-07T09:26:18.750Z,70.43
2018-01-07T09:26:59.237Z,70.49
2018-01-07T09:27:39.632Z,70.52
2018-01-07T09:28:19.961Z,70.49
2018-01-07T09:29:00.902Z,71.06
2018-01-07T09:29:41.700Z,70.87
2018-01-07T09:30:22.378Z,71.34
2018-01-07T09:31:03.632Z,71.63
2018-01-07T09:31:45.366Z,70.87
2018-01-07T09:32:26.400Z,70.87
2018-01-07T09:33:06.771Z,70.87
2018-01-07T09:33:47.619Z,70.43
2018-01-07T09:34:28.750Z,70.72
2018-01-07T09:35:09.022Z,70.33
2018-01-07T09:35:49.483Z,69.95
2018-01-07T09:36:29.881Z,70.24
2018-01-07T09:37:10.469Z,70.24
2018-01-07T09:37:50.856Z,70.05
2018-01-07T09:38:32.004Z,70.52
2018-01-07T09:39:12.420Z,70.14
2018-01-07T09:39:53.194Z,70.33
2018-01-07T09:40:33.615Z,69.76
2018-01-07T09:41:14.049Z,69.76
2018-01-07T09:41:54.629Z,69
2018-01-07T09:42:35.366Z,69.38
2018-01-07T09:43:15.894Z,69.57
2018-01-07T09:43:56.746Z,69.57
2018-01-07T09:44:37.130Z,69.48
2018-01-07T09:45:17.589Z,69.67
2018-01-07T09:45:57.969Z,70.24
2018-01-07T09:46:38.444Z,69.76
2018-01-07T09:47:18.989Z,69.38
2018-01-07T09:47:59.472Z,69
2018-01-07T09:48:39.838Z,69.29
2018-01-07T09:49:20.173Z,69.1
2018-01-07T09:51:22.751Z,69
2018-01-07T09:52:06.302Z,69.57
2018-01-07T09:52:46.636Z,69.38
2018-01-07T09:53:29.314Z,68.81
2018-01-07T09:54:11.633Z,68.33
2018-01-07T09:54:53.826Z,68.9
2018-01-07T09:55:34.682Z,69.48
2018-01-07T09:56:14.761Z,69
2018-01-07T09:58:02.636Z,68.9
2018-01-07T10:00:03.249Z,69.19
2018-01-07T10:00:45.397Z,69.48
2018-01-07T10:01:25.999Z,69.38
2018-01-07T10:02:06.233Z,69.19
2018-01-07T10:02:46.588Z,69
2018-01-07T10:03:27.093Z,68.33
2018-01-07T10:04:07.959Z,68.52
2018-01-07T10:41:50.070Z,70.72
2018-01-07T10:42:43.175Z,70.14
2018-01-07T10:43:35.943Z,70.58
2018-01-07T10:44:28.495Z,70.62
2018-01-07T10:45:22.407Z,70.2
2018-01-07T10:46:15.434Z,70.77
2018-01-07T10:47:13.588Z,70.24
2018-01-07T10:48:06.518Z,70.24
2018-01-07T10:49:01.538Z,70.05
2018-01-07T10:49:52.735Z,69.57
2018-01-07T10:51:50.375Z,69.85
2018-01-07T10:52:29.681Z,69.76
2018-01-07T10:53:10.819Z,69.19
2018-01-07T10:53:51.211Z,70.14
2018-01-07T10:54:34.070Z,70.24
2018-01-07T10:55:14.895Z,69.29
2018-01-07T10:55:55.265Z,69.85
2018-01-07T10:56:35.678Z,69.29
2018-01-07T10:57:16.647Z,69.57
2018-01-07T10:57:57.215Z,69.57
2018-01-07T10:58:37.837Z,69.19
2018-01-07T10:59:18.388Z,69.85
2018-01-07T10:59:58.840Z,68.62
2018-01-07T11:00:39.901Z,69.76
2018-01-07T11:01:20.418Z,70.14
2018-01-07T11:02:00.969Z,69.95
2018-01-07T11:02:42.296Z,69.57
2018-01-07T11:03:22.879Z,69.38
2018-01-07T11:04:04.380Z,70.14
2018-01-07T11:04:45.586Z,69.67
2018-01-07T11:05:25.885Z,69.85
2018-01-07T11:06:06.392Z,69.29
2018-01-07T11:06:47.073Z,68.81
2018-01-07T11:07:27.738Z,69.1
2018-01-07T11:08:08.280Z,69.85
2018-01-07T11:08:50.266Z,69.95
2018-01-07T11:09:30.683Z,69.85
2018-01-07T11:10:12.894Z,69.38
2018-01-07T11:10:53.576Z,69.38
2018-01-07T11:11:34.012Z,69.19
2018-01-07T11:12:14.675Z,69.1
2018-01-07T11:12:55.072Z,69.38
2018-01-07T11:13:36.519Z,69.48
2018-01-07T11:14:18.890Z,69.57
2018-01-07T11:15:00.497Z,70.14
2018-01-07T11:15:40.899Z,69.29
2018-01-07T11:16:22.010Z,69.67